Time;durP1;ratioP1;P1;durP2;ratioP2;P2;SDS_P1;SDS_P2;PMS_P1;PMS_P2;Temp;Humidity;BMP_temperature;BMP_pressure;BME280_temperature;BME280_humidity;BME280_pressure;Samples;Min_cycle;Max_cycle;Signal;HPM_P1;HPM_P2
2023/02/05 00:00:02;;;;;;;0.60;0.60;;;;;;;20.08;35.82;103642.53;5058751;28;20048;-71
2023/02/05 00:02:31;;;;;;;0.65;0.65;;;;;;;20.00;36.00;103645.78;5053267;28;20086;-71
2023/02/05 00:04:57;;;;;;;0.50;0.50;;;;;;;19.99;35.93;103625.56;5053425;28;20034;-71
2023/02/05 00:07:23;;;;;;;0.40;0.40;;;;;;;19.88;36.04;103620.22;5054060;28;20448;-71
2023/02/05 00:09:48;;;;;;;0.50;0.50;;;;;;;19.87;36.18;103623.81;5048208;28;20046;-71
2023/02/05 00:12:14;;;;;;;0.50;0.50;;;;;;;19.99;35.78;103624.72;5050719;28;20126;-71
2023/02/05 00:14:39;;;;;;;0.45;0.45;;;;;;;20.00;35.82;103621.13;5053894;28;20098;-71
2023/02/05 00:17:05;;;;;;;0.35;0.35;;;;;;;19.96;35.91;103612.56;5052868;28;20074;-71
2023/02/05 00:19:30;;;;;;;0.60;0.60;;;;;;;19.81;36.26;103611.06;5054551;28;20072;-70
2023/02/05 00:21:56;;;;;;;0.65;0.50;;;;;;;19.82;36.13;103608.28;5053550;28;20056;-71
2023/02/05 00:24:21;;;;;;;0.52;0.52;;;;;;;19.81;36.18;103603.97;5048865;28;20040;-71
2023/02/05 00:26:47;;;;;;;0.45;0.45;;;;;;;19.88;35.98;103607.84;5054478;28;20491;-71
2023/02/05 00:29:12;;;;;;;0.40;0.40;;;;;;;19.98;35.76;103617.75;5053548;28;20044;-71
2023/02/05 00:31:38;;;;;;;0.40;0.40;;;;;;;19.81;36.08;103619.84;5056029;28;20036;-71
2023/02/05 00:34:04;;;;;;;0.60;0.57;;;;;;;19.86;36.08;103625.63;5064601;28;20037;-71
2023/02/05 00:36:30;;;;;;;0.40;0.40;;;;;;;19.83;36.04;103617.91;5053827;28;20082;-71
2023/02/05 00:38:55;;;;;;;0.63;0.60;;;;;;;19.79;36.16;103615.63;5052378;28;20475;-71
2023/02/05 00:41:21;;;;;;;0.52;0.40;;;;;;;19.72;36.31;103606.44;5057263;28;20580;-71
2023/02/05 00:43:46;;;;;;;0.68;0.68;;;;;;;19.80;36.01;103604.09;5055586;28;20379;-71
2023/02/05 00:46:12;;;;;;;0.60;0.60;;;;;;;19.77;36.13;103586.66;5054743;28;20044;-71
2023/02/05 00:48:39;;;;;;;0.40;0.40;;;;;;;19.69;36.43;103585.50;5055534;28;20040;-71
2023/02/05 00:51:06;;;;;;;0.50;0.50;;;;;;;19.76;36.17;103587.59;5054559;28;20093;-71
2023/02/05 00:53:32;;;;;;;0.30;0.30;;;;;;;19.75;36.19;103599.13;5057359;28;20040;-71
2023/02/05 00:55:58;;;;;;;0.47;0.47;;;;;;;19.65;36.43;103595.47;5054592;28;20040;-71
2023/02/05 00:58:23;;;;;;;0.60;0.60;;;;;;;19.71;36.19;103595.00;5075300;28;20037;-71
2023/02/05 01:00:50;;;;;;;0.60;0.57;;;;;;;19.58;36.41;103594.25;5056567;28;20044;-71
2023/02/05 01:03:16;;;;;;;0.73;0.70;;;;;;;19.70;36.23;103593.31;5050924;28;20056;-71
2023/02/05 01:05:42;;;;;;;0.52;0.50;;;;;;;19.73;36.21;103597.53;5050105;28;20142;-71
2023/02/05 01:08:09;;;;;;;0.50;0.50;;;;;;;19.68;36.21;103608.47;5055194;28;20498;-71
2023/02/05 01:10:36;;;;;;;0.50;0.50;;;;;;;19.52;36.34;103607.84;5047858;28;20045;-71
2023/02/05 01:13:02;;;;;;;0.65;0.65;;;;;;;19.57;36.46;103592.56;5051840;28;20028;-71
2023/02/05 01:15:27;;;;;;;0.50;0.50;;;;;;;19.58;36.46;103587.16;5066279;28;20082;-71
2023/02/05 01:17:53;;;;;;;0.40;0.40;;;;;;;19.54;36.61;103590.09;5044838;28;20052;-71
2023/02/05 01:20:20;;;;;;;0.47;0.47;;;;;;;19.54;36.42;103593.59;5053381;28;20056;-71
2023/02/05 01:22:46;;;;;;;0.45;0.40;;;;;;;19.60;36.34;103594.97;5051278;28;20051;-71
2023/02/05 01:25:12;;;;;;;0.47;0.47;;;;;;;19.70;36.28;103589.84;5056798;28;20032;-71
2023/02/05 01:27:37;;;;;;;0.55;0.52;;;;;;;19.52;36.39;103576.97;5058660;28;20777;-70
2023/02/05 01:30:05;;;;;;;0.60;0.60;;;;;;;19.57;36.49;103559.03;5063006;28;20056;-71
2023/02/05 01:32:30;;;;;;;0.45;0.45;;;;;;;19.50;36.43;103559.53;5059564;28;20101;-71
2023/02/05 01:34:59;;;;;;;0.45;0.40;;;;;;;19.49;36.57;103561.34;5069897;28;20048;-71
2023/02/05 01:37:24;;;;;;;0.40;0.40;;;;;;;19.53;36.46;103568.09;5055561;28;20040;-71
2023/02/05 01:39:50;;;;;;;0.65;0.65;;;;;;;19.48;36.54;103570.22;5065742;28;20106;-71
2023/02/05 01:42:25;;;;;;;1.60;0.60;;;;;;;19.45;36.72;103570.44;5051707;28;20502;-71
2023/02/05 01:45:22;;;;;;;0.77;0.65;;;;;;;19.40;36.70;103567.31;5053886;28;20044;-71
2023/02/05 01:47:53;;;;;;;0.40;0.40;;;;;;;19.38;36.67;103568.34;5053542;28;20037;-71
2023/02/05 01:50:33;;;;;;;0.50;0.50;;;;;;;19.34;36.82;103573.00;5054443;28;20393;-71
2023/02/05 01:53:04;;;;;;;0.60;0.60;;;;;;;19.32;36.81;103557.28;5052483;28;20519;-71
2023/02/05 01:55:30;;;;;;;0.70;0.70;;;;;;;19.38;36.84;103563.06;5054075;28;20103;-71
2023/02/05 01:57:58;;;;;;;0.40;0.40;;;;;;;19.47;36.88;103546.56;5070330;28;20834;-71
2023/02/05 02:00:24;;;;;;;0.50;0.50;;;;;;;19.34;36.78;103543.94;5060903;28;20048;-71
2023/02/05 02:02:50;;;;;;;0.52;0.52;;;;;;;19.54;36.40;103526.66;5056707;28;20055;-71
2023/02/05 02:05:16;;;;;;;0.45;0.43;;;;;;;19.45;36.51;103522.88;5058964;28;20043;-71
2023/02/05 02:07:42;;;;;;;0.73;0.73;;;;;;;19.39;36.72;103525.13;5060553;28;20047;-71
2023/02/05 02:10:11;;;;;;;0.50;0.50;;;;;;;19.39;36.75;103519.81;5052432;28;20044;-71
2023/02/05 02:12:40;;;;;;;0.80;0.80;;;;;;;19.44;36.58;103521.19;5059373;28;20367;-71
2023/02/05 02:15:17;;;;;;;0.55;0.55;;;;;;;19.38;36.62;103520.78;5058370;28;20125;-71
2023/02/05 02:17:48;;;;;;;0.50;0.50;;;;;;;19.36;36.77;103527.97;5055861;28;20127;-71
2023/02/05 02:20:19;;;;;;;0.50;0.50;;;;;;;19.30;36.67;103532.75;5060143;28;20117;-71
2023/02/05 02:23:06;;;;;;;0.45;0.45;;;;;;;19.21;36.83;103536.09;5058379;28;20036;-71
2023/02/05 02:26:09;;;;;;;0.90;0.77;;;;;;;19.27;36.87;103524.22;5054030;28;20445;-71
2023/02/05 02:28:47;;;;;;;0.80;0.80;;;;;;;19.36;36.69;103512.97;5058228;28;20040;-71
2023/02/05 02:31:21;;;;;;;0.60;0.60;;;;;;;19.43;36.50;103506.31;5056639;28;20103;-71
2023/02/05 02:33:59;;;;;;;0.57;0.57;;;;;;;19.33;36.68;103508.75;5052086;28;20059;-71
2023/02/05 02:36:31;;;;;;;0.47;0.47;;;;;;;19.38;36.54;103497.00;5068972;28;20767;-71
2023/02/05 02:39:24;;;;;;;0.68;0.60;;;;;;;19.29;36.72;103488.81;5049677;28;20082;-71
2023/02/05 02:42:00;;;;;;;0.30;0.30;;;;;;;19.29;36.77;103482.69;5051547;28;20080;-71
2023/02/05 02:44:33;;;;;;;0.80;0.80;;;;;;;19.27;36.90;103474.03;5051899;28;20060;-71
2023/02/05 02:47:06;;;;;;;0.60;0.60;;;;;;;19.27;36.83;103474.88;5053942;28;20047;-71
2023/02/05 02:49:40;;;;;;;0.57;0.57;;;;;;;19.22;36.97;103479.66;5050021;28;20483;-71
2023/02/05 02:52:10;;;;;;;0.38;0.38;;;;;;;19.25;36.86;103471.50;5053395;28;20029;-71
2023/02/05 02:54:40;;;;;;;0.47;0.47;;;;;;;19.15;37.20;103477.56;5052195;28;20032;-71
2023/02/05 02:57:09;;;;;;;0.60;0.60;;;;;;;19.20;36.99;103467.50;5060423;28;20086;-71
2023/02/05 02:59:39;;;;;;;1.42;0.70;;;;;;;19.28;36.94;103471.28;5052671;28;20477;-71
2023/02/05 03:02:10;;;;;;;0.80;0.80;;;;;;;19.34;36.75;103469.97;5050560;28;20044;-71
2023/02/05 03:04:40;;;;;;;0.45;0.43;;;;;;;19.25;36.87;103475.94;5044409;28;20398;-71
2023/02/05 03:07:29;;;;;;;0.60;0.60;;;;;;;19.14;37.02;103473.22;5049423;28;20044;-71
2023/02/05 03:10:06;;;;;;;0.60;0.60;;;;;;;19.23;36.86;103457.56;5047341;28;20039;-71
2023/02/05 03:12:31;;;;;;;0.50;0.50;;;;;;;19.17;36.97;103465.91;5054693;28;20418;-71
2023/02/05 03:14:57;;;;;;;0.60;0.60;;;;;;;19.15;37.15;103475.75;5053290;28;20087;-71
2023/02/05 03:17:25;;;;;;;0.60;0.60;;;;;;;19.16;37.01;103479.22;5055179;28;20683;-71
2023/02/05 03:19:58;;;;;;;0.70;0.70;;;;;;;19.11;37.15;103482.22;5057448;28;20681;-71
2023/02/05 03:22:24;;;;;;;0.70;0.70;;;;;;;19.16;37.04;103479.22;5071586;28;20032;-71
2023/02/05 03:24:50;;;;;;;0.80;0.80;;;;;;;18.95;37.38;103489.56;5051424;28;20039;-71
2023/02/05 03:27:17;;;;;;;0.82;0.82;;;;;;;19.15;37.09;103477.56;5054120;28;20044;-71
2023/02/05 03:29:43;;;;;;;0.55;0.52;;;;;;;19.07;37.20;103482.56;5044426;28;20142;-71
2023/02/05 03:32:28;;;;;;;0.50;0.50;;;;;;;19.16;37.11;103482.72;5071142;28;20099;-71
2023/02/05 03:35:22;;;;;;;0.65;0.65;;;;;;;19.12;36.99;103475.13;5050527;28;20046;-71
2023/02/05 03:38:08;;;;;;;0.98;0.88;;;;;;;19.15;37.08;103469.63;5050404;28;20040;-71
2023/02/05 03:40:41;;;;;;;0.60;0.60;;;;;;;19.20;36.94;103472.78;5054517;28;20040;-71
2023/02/05 03:43:30;;;;;;;0.70;0.70;;;;;;;18.96;37.34;103476.25;5055936;28;20046;-71
2023/02/05 03:46:15;;;;;;;;;;;;;;;19.17;36.95;103473.00;5052256;28;20029;-69
2023/02/05 03:49:02;;;;;;;0.70;0.70;;;;;;;19.19;36.81;103458.72;5064196;28;19916;-70
2023/02/05 03:51:37;;;;;;;0.70;0.70;;;;;;;19.09;37.17;103452.44;5052148;28;20054;-70
2023/02/05 03:54:21;;;;;;;0.93;0.80;;;;;;;18.98;37.19;103452.34;5068069;28;20423;-70
2023/02/05 03:56:59;;;;;;;0.70;0.70;;;;;;;18.93;37.48;103451.84;5054398;28;20082;-70
2023/02/05 03:59:27;;;;;;;0.68;0.68;;;;;;;19.08;37.36;103457.84;5051411;28;20028;-70
2023/02/05 04:01:53;;;;;;;0.77;0.73;;;;;;;19.04;37.34;103457.22;5052931;28;20028;-70
2023/02/05 04:04:20;;;;;;;0.60;0.60;;;;;;;19.11;37.14;103458.44;5052431;28;20050;-70
2023/02/05 04:06:49;;;;;;;0.70;0.68;;;;;;;19.15;37.09;103462.53;5038336;28;20032;-70
2023/02/05 04:09:14;;;;;;;0.60;0.60;;;;;;;19.18;36.86;103458.84;5053435;28;20087;-70
2023/02/05 04:11:40;;;;;;;0.88;0.88;;;;;;;19.07;37.14;103458.78;5053913;28;20040;-70
2023/02/05 04:14:05;;;;;;;0.70;0.70;;;;;;;19.14;37.17;103458.22;5048390;28;20048;-70
2023/02/05 04:16:32;;;;;;;0.60;0.60;;;;;;;19.14;37.13;103452.09;5070138;28;20063;-70
2023/02/05 04:18:58;;;;;;;1.00;1.00;;;;;;;19.15;37.09;103446.69;5064081;28;20036;-70
2023/02/05 04:21:26;;;;;;;0.95;0.80;;;;;;;19.14;37.10;103445.00;5068920;28;20032;-70
2023/02/05 04:23:52;;;;;;;0.80;0.80;;;;;;;19.20;36.97;103449.84;5054661;28;20044;-70
2023/02/05 04:26:18;;;;;;;0.90;0.75;;;;;;;19.16;36.99;103444.91;5047812;28;20036;-70
2023/02/05 04:28:53;;;;;;;0.82;0.82;;;;;;;19.06;37.40;103446.53;5065092;28;20051;-70
2023/02/05 04:31:19;;;;;;;0.75;0.75;;;;;;;19.08;37.33;103432.25;5052394;28;20056;-70
2023/02/05 04:33:45;;;;;;;0.80;0.80;;;;;;;19.10;37.32;103437.44;5055006;28;20032;-70
2023/02/05 04:36:13;;;;;;;1.38;0.90;;;;;;;19.12;37.21;103436.34;5054018;28;20123;-70
2023/02/05 04:38:38;;;;;;;1.23;1.13;;;;;;;19.15;36.99;103430.00;5051406;28;20965;-70
2023/02/05 04:41:04;;;;;;;0.88;0.80;;;;;;;19.20;36.89;103430.50;5053438;28;20399;-70
2023/02/05 04:43:30;;;;;;;0.70;0.70;;;;;;;19.07;37.44;103435.03;5055346;28;20880;-70
2023/02/05 04:45:55;;;;;;;0.68;0.68;;;;;;;19.07;37.18;103427.94;5050925;28;20048;-70
2023/02/05 04:48:21;;;;;;;0.73;0.73;;;;;;;19.11;37.34;103420.63;5055192;28;20044;-70
2023/02/05 04:50:46;;;;;;;0.90;0.90;;;;;;;19.09;37.15;103418.09;5058250;28;20049;-69
2023/02/05 04:53:12;;;;;;;0.90;0.90;;;;;;;19.12;37.36;103422.31;5055057;28;20052;-70
2023/02/05 04:55:38;;;;;;;1.17;0.85;;;;;;;19.15;37.12;103425.56;5053623;28;20039;-70
2023/02/05 04:58:03;;;;;;;1.20;1.10;;;;;;;19.11;37.15;103421.47;5054274;28;20032;-70
2023/02/05 05:00:29;;;;;;;1.02;0.93;;;;;;;19.02;37.31;103427.41;5051830;28;20044;-70
2023/02/05 05:02:55;;;;;;;0.98;0.98;;;;;;;19.13;37.18;103418.72;5056320;28;20032;-70
2023/02/05 05:05:21;;;;;;;0.85;0.85;;;;;;;19.11;37.30;103421.47;5055020;28;20379;-70
2023/02/05 05:07:47;;;;;;;0.70;0.70;;;;;;;19.09;37.36;103427.81;5056085;28;20110;-70
2023/02/05 05:10:13;;;;;;;1.08;1.08;;;;;;;19.01;37.37;103418.66;5057973;28;20120;-70
2023/02/05 05:12:39;;;;;;;1.13;1.10;;;;;;;19.06;37.44;103422.78;5059384;28;20145;-70
2023/02/05 05:15:05;;;;;;;0.88;0.85;;;;;;;19.10;37.30;103425.06;5058559;28;20484;-70
2023/02/05 05:17:30;;;;;;;0.80;0.80;;;;;;;19.02;37.39;103412.41;5057034;28;20054;-70
2023/02/05 05:19:56;;;;;;;0.80;0.80;;;;;;;19.07;37.46;103417.38;5057228;28;20407;-70
2023/02/05 05:22:21;;;;;;;1.05;0.90;;;;;;;19.17;37.38;103414.88;5057216;28;20036;-70
2023/02/05 05:24:47;;;;;;;0.85;0.85;;;;;;;19.05;37.51;103414.00;5057864;28;20032;-70
2023/02/05 05:27:12;;;;;;;0.93;0.93;;;;;;;19.04;37.53;103403.56;5058765;28;20040;-70
2023/02/05 05:29:38;;;;;;;0.98;0.98;;;;;;;19.10;37.40;103411.88;5053457;28;20052;-70
2023/02/05 05:32:04;;;;;;;0.82;0.82;;;;;;;19.09;37.39;103412.81;5052110;28;20048;-70
2023/02/05 05:34:29;;;;;;;0.77;0.77;;;;;;;19.03;37.60;103410.63;5059748;28;20098;-70
2023/02/05 05:36:55;;;;;;;0.68;0.68;;;;;;;19.21;37.11;103400.50;5057437;28;20102;-70
2023/02/05 05:44:51;;;;;;;1.27;0.95;;;;;;;19.19;37.41;103408.53;5056159;28;20044;-70
2023/02/05 05:47:17;;;;;;;0.98;0.80;;;;;;;19.29;37.29;103411.34;5055157;28;20465;-70
2023/02/05 05:49:43;;;;;;;1.70;0.77;;;;;;;19.29;37.21;103404.25;5056597;28;20040;-70
2023/02/05 05:52:10;;;;;;;0.70;0.60;;;;;;;19.16;37.57;103411.41;5056773;28;20068;-70
2023/02/05 05:54:36;;;;;;;0.80;0.80;;;;;;;19.30;37.18;103413.88;5059059;28;20042;-70
2023/02/05 05:57:01;;;;;;;0.70;0.70;;;;;;;19.28;37.36;103420.22;5060043;28;20859;-70
2023/02/05 05:59:27;;;;;;;0.95;0.95;;;;;;;19.27;37.45;103424.66;5054903;28;20033;-70
2023/02/05 06:01:52;;;;;;;0.73;0.73;;;;;;;19.30;37.23;103426.25;5061536;28;20048;-70
2023/02/05 06:04:18;;;;;;;0.70;0.68;;;;;;;19.18;37.51;103417.41;5057551;28;20044;-70
2023/02/05 06:06:43;;;;;;;0.80;0.80;;;;;;;19.37;37.18;103418.69;5055037;28;20040;-70
2023/02/05 06:09:09;;;;;;;1.15;0.88;;;;;;;19.22;37.46;103418.91;5053443;28;20040;-70
2023/02/05 06:11:34;;;;;;;0.73;0.73;;;;;;;19.22;37.63;103428.63;5060426;28;20059;-70
2023/02/05 06:14:00;;;;;;;1.10;1.00;;;;;;;19.22;37.65;103431.25;5059115;28;20063;-70
2023/02/05 06:16:25;;;;;;;0.75;0.75;;;;;;;19.20;37.78;103433.16;5058033;28;20052;-70
2023/02/05 06:18:51;;;;;;;0.73;0.70;;;;;;;19.15;37.66;103435.28;5058860;28;20475;-70
2023/02/05 06:21:16;;;;;;;0.60;0.60;;;;;;;19.26;37.56;103424.78;5059806;28;20041;-69
2023/02/05 06:23:42;;;;;;;0.65;0.65;;;;;;;19.28;37.53;103436.94;5063780;28;20040;-70
2023/02/05 06:26:07;;;;;;;0.77;0.77;;;;;;;19.19;37.65;103440.22;5059509;28;20044;-70
2023/02/05 06:28:33;;;;;;;0.60;0.55;;;;;;;19.21;37.67;103429.53;5059490;28;20048;-70
2023/02/05 06:30:58;;;;;;;0.45;0.45;;;;;;;19.31;37.50;103428.78;5063110;28;20123;-70
2023/02/05 06:33:24;;;;;;;0.60;0.60;;;;;;;19.33;37.38;103431.28;5056402;28;20218;-70
2023/02/05 06:35:50;;;;;;;0.68;0.65;;;;;;;19.19;37.71;103424.38;5054799;28;20032;-70
2023/02/05 06:38:15;;;;;;;0.63;0.63;;;;;;;19.33;37.36;103434.78;5066363;28;20551;-70
2023/02/05 06:40:41;;;;;;;0.55;0.55;;;;;;;19.32;37.57;103430.44;5066120;28;20104;-70
2023/02/05 06:43:06;;;;;;;0.88;0.65;;;;;;;19.32;37.58;103438.38;5055973;28;20065;-70
2023/02/05 06:45:32;;;;;;;0.45;0.40;;;;;;;19.33;37.44;103441.88;5048871;28;20044;-70
2023/02/05 06:47:57;;;;;;;0.55;0.55;;;;;;;20.05;36.50;103436.47;5054567;28;20109;-70
2023/02/05 06:50:24;;;;;;;0.57;0.47;;;;;;;21.37;34.23;103425.03;5053456;28;20044;-70
2023/02/05 06:52:50;;;;;;;0.77;0.60;;;;;;;22.07;32.67;103434.16;5058343;28;20044;-69
2023/02/05 06:55:16;;;;;;;0.63;0.63;;;;;;;22.47;32.14;103431.56;5054540;28;20056;-70
2023/02/05 06:57:41;;;;;;;0.65;0.60;;;;;;;22.35;32.74;103446.72;5055280;28;20090;-70
2023/02/05 07:00:08;;;;;;;0.60;0.40;;;;;;;22.27;32.55;103433.28;5055384;28;20032;-70
2023/02/05 07:02:33;;;;;;;0.73;0.70;;;;;;;22.11;33.12;103441.75;5052688;28;20107;-70
2023/02/05 07:04:59;;;;;;;0.40;0.40;;;;;;;21.95;33.13;103444.00;5054734;28;20029;-70
2023/02/05 07:07:24;;;;;;;1.15;0.88;;;;;;;21.80;33.42;103440.81;5056081;28;20561;-70
2023/02/05 07:09:50;;;;;;;0.40;0.40;;;;;;;21.78;33.66;103444.56;5053350;28;20028;-70
2023/02/05 07:12:15;;;;;;;0.38;0.38;;;;;;;21.65;33.95;103442.94;5056412;28;20048;-70
2023/02/05 07:14:41;;;;;;;0.55;0.55;;;;;;;21.51;33.99;103442.41;5059878;28;20059;-70
2023/02/05 07:17:07;;;;;;;0.63;0.60;;;;;;;21.39;34.37;103450.44;5057562;28;20562;-70
2023/02/05 07:19:33;;;;;;;0.30;0.30;;;;;;;21.35;34.32;103456.09;5057970;28;20048;-70
2023/02/05 07:21:59;;;;;;;0.50;0.45;;;;;;;21.18;34.74;103453.94;5053758;28;20043;-70
2023/02/05 07:24:24;;;;;;;0.63;0.57;;;;;;;21.04;35.12;103466.53;5057913;28;20044;-70
2023/02/05 07:26:50;;;;;;;0.60;0.60;;;;;;;20.89;35.21;103473.06;5056812;28;20053;-70
2023/02/05 07:29:16;;;;;;;0.50;0.50;;;;;;;20.83;35.47;103480.66;5052301;28;20746;-70
2023/02/05 07:31:41;;;;;;;0.55;0.55;;;;;;;20.95;35.20;103484.97;5054556;28;20039;-70
2023/02/05 07:34:07;;;;;;;0.63;0.63;;;;;;;20.76;35.39;103494.38;5053332;28;20043;-70
2023/02/05 07:36:32;;;;;;;0.85;0.60;;;;;;;20.65;35.71;103501.50;5051347;28;20121;-70
2023/02/05 07:38:58;;;;;;;0.70;0.47;;;;;;;20.42;36.15;103498.81;5060695;28;20040;-70
2023/02/05 07:41:25;;;;;;;0.60;0.60;;;;;;;20.33;36.36;103506.63;5054771;28;20044;-70
2023/02/05 07:43:52;;;;;;;0.80;0.65;;;;;;;20.32;36.47;103505.78;5053274;28;20123;-70
2023/02/05 07:46:19;;;;;;;0.70;0.70;;;;;;;20.44;35.96;103498.72;5041923;28;20086;-70
2023/02/05 07:48:44;;;;;;;1.10;0.70;;;;;;;20.64;35.87;103511.22;5050730;28;20694;-70
2023/02/05 07:51:22;;;;;;;0.52;0.52;;;;;;;20.73;35.54;103518.47;5053691;28;20043;-70
2023/02/05 07:53:48;;;;;;;0.63;0.63;;;;;;;20.76;35.75;103522.66;5055467;28;20036;-70
2023/02/05 07:56:14;;;;;;;1.15;0.70;;;;;;;20.87;35.45;103527.97;5055507;28;20405;-70
2023/02/05 07:58:40;;;;;;;1.02;0.70;;;;;;;20.75;35.72;103524.47;5054692;28;20044;-70
2023/02/05 08:01:06;;;;;;;0.50;0.50;;;;;;;20.72;35.59;103511.47;5057067;28;20600;-70
2023/02/05 08:03:32;;;;;;;0.55;0.55;;;;;;;20.70;35.67;103531.09;5057741;28;20119;-70
2023/02/05 08:05:58;;;;;;;0.32;0.32;;;;;;;20.65;35.93;103531.47;5056412;28;20041;-70
2023/02/05 08:08:24;;;;;;;0.30;0.30;;;;;;;20.51;36.32;103529.06;5053163;28;20051;-70
2023/02/05 08:11:02;;;;;;;1.00;0.60;;;;;;;20.49;36.22;103531.81;5053973;28;20048;-70
2023/02/05 08:13:28;;;;;;;0.47;0.47;;;;;;;20.41;36.39;103538.66;5055763;28;20648;-70
2023/02/05 08:15:53;;;;;;;0.75;0.52;;;;;;;20.25;36.48;103536.31;5057439;28;20495;-70
2023/02/05 08:18:19;;;;;;;0.40;0.40;;;;;;;20.31;36.53;103538.50;5058692;28;20068;-70
2023/02/05 08:20:44;;;;;;;0.52;0.52;;;;;;;20.32;36.51;103547.28;5055248;28;20145;-70
2023/02/05 08:23:10;;;;;;;0.65;0.65;;;;;;;20.23;36.68;103539.06;5053001;28;20037;-70
2023/02/05 08:25:37;;;;;;;0.80;0.80;;;;;;;20.13;36.79;103553.97;5052975;28;20535;-70
2023/02/05 08:28:04;;;;;;;0.77;0.65;;;;;;;20.09;36.92;103560.44;5049906;28;20460;-70
2023/02/05 08:30:29;;;;;;;0.32;0.32;;;;;;;20.10;36.92;103556.81;5052197;28;20869;-70
2023/02/05 08:32:55;;;;;;;0.85;0.70;;;;;;;20.05;36.92;103566.06;5057411;28;20036;-70
2023/02/05 08:35:20;;;;;;;1.05;0.55;;;;;;;20.12;36.88;103580.53;5051235;28;20036;-70
2023/02/05 08:37:46;;;;;;;1.15;0.60;;;;;;;20.07;37.02;103585.31;5049558;28;20041;-70
2023/02/05 08:40:12;;;;;;;1.42;0.50;;;;;;;20.12;36.97;103583.19;5055506;28;20064;-70
2023/02/05 08:42:37;;;;;;;0.85;0.60;;;;;;;20.06;37.00;103587.13;5053052;28;20114;-69
2023/02/05 08:45:07;;;;;;;0.43;0.30;;;;;;;20.20;36.74;103597.50;5051328;28;20098;-70
2023/02/05 08:47:34;;;;;;;1.15;0.88;;;;;;;20.61;35.84;103598.00;5052382;28;20080;-70
2023/02/05 08:49:59;;;;;;;0.65;0.63;;;;;;;21.17;35.07;103612.09;5050423;28;20521;-69
2023/02/05 08:52:25;;;;;;;0.52;0.45;;;;;;;21.37;34.17;103597.31;5052475;28;20033;-70
2023/02/05 08:54:50;;;;;;;0.60;0.60;;;;;;;21.29;34.50;103608.53;5049422;28;20067;-70
2023/02/05 08:57:16;;;;;;;1.52;0.77;;;;;;;21.29;34.69;103624.41;5054479;28;20031;-69
2023/02/05 08:59:42;;;;;;;0.50;0.45;;;;;;;21.04;35.25;103622.00;5053592;28;20771;-70
2023/02/05 09:02:12;;;;;;;0.85;0.50;;;;;;;20.98;35.20;103627.75;5052600;28;20040;-69
2023/02/05 09:04:38;;;;;;;0.60;0.50;;;;;;;20.99;35.24;103642.69;5056664;28;20040;-70
2023/02/05 09:07:03;;;;;;;0.68;0.57;;;;;;;21.09;35.05;103654.28;5051285;28;20052;-70
2023/02/05 09:09:31;;;;;;;0.65;0.40;;;;;;;20.99;35.36;103650.63;5052019;28;21653;-70
2023/02/05 09:11:57;;;;;;;1.23;0.68;;;;;;;20.91;35.45;103655.69;5052928;28;20052;-69
2023/02/05 09:14:23;;;;;;;0.35;0.30;;;;;;;20.83;35.75;103672.19;5052399;28;20047;-68
2023/02/05 09:16:48;;;;;;;0.55;0.55;;;;;;;20.71;35.78;103671.31;5052598;28;20105;-69
2023/02/05 09:19:14;;;;;;;0.90;0.40;;;;;;;20.59;36.07;103677.53;5054245;28;20048;-68
2023/02/05 09:21:40;;;;;;;0.50;0.50;;;;;;;20.57;36.20;103675.97;5053627;28;20443;-68
2023/02/05 09:24:06;;;;;;;0.50;0.40;;;;;;;20.41;36.25;103666.53;5056361;28;20103;-68
2023/02/05 09:26:31;;;;;;;0.43;0.35;;;;;;;20.42;36.42;103673.50;5055106;28;20623;-68
2023/02/05 09:28:57;;;;;;;0.82;0.45;;;;;;;20.44;36.52;103676.03;5051951;28;20091;-68
2023/02/05 09:31:23;;;;;;;0.68;0.32;;;;;;;20.47;36.48;103681.13;5056282;28;20045;-68
2023/02/05 09:33:48;;;;;;;0.47;0.47;;;;;;;20.40;36.56;103688.63;5054148;28;20036;-68
2023/02/05 09:36:20;;;;;;;0.68;0.50;;;;;;;20.34;36.51;103690.91;5055443;28;20486;-68
2023/02/05 09:38:46;;;;;;;0.75;0.55;;;;;;;20.38;36.61;103695.84;5052532;28;20509;-68
2023/02/05 09:41:11;;;;;;;0.40;0.40;;;;;;;20.35;36.42;103700.53;5053092;28;20037;-68
2023/02/05 09:43:47;;;;;;;0.60;0.60;;;;;;;20.29;36.63;103709.78;5049412;28;20039;-68
2023/02/05 09:46:29;;;;;;;0.60;0.60;;;;;;;20.42;36.37;103715.88;5053441;28;20044;-69
2023/02/05 09:49:26;;;;;;;0.45;0.45;;;;;;;20.89;35.60;103726.50;5049380;28;20529;-68
2023/02/05 09:52:25;;;;;;;0.47;0.40;;;;;;;21.03;35.15;103728.94;5051797;28;20151;-68
2023/02/05 09:54:56;;;;;;;0.52;0.52;;;;;;;20.98;35.40;103739.03;5050106;28;20036;-68
2023/02/05 09:57:29;;;;;;;0.93;0.50;;;;;;;20.89;35.44;103751.19;5054039;28;20585;-68
2023/02/05 09:59:55;;;;;;;0.52;0.50;;;;;;;20.87;35.55;103755.75;5054976;28;20379;-68
2023/02/05 10:02:39;;;;;;;0.47;0.47;;;;;;;20.74;35.95;103760.28;5056057;28;20055;-68
2023/02/05 10:05:14;;;;;;;0.35;0.35;;;;;;;20.79;35.64;103763.41;5058950;28;20747;-69
2023/02/05 10:08:12;;;;;;;0.50;0.50;;;;;;;20.60;36.07;103761.31;5051735;28;20094;-68
2023/02/05 10:10:48;;;;;;;0.55;0.30;;;;;;;20.58;36.11;103760.56;5052143;28;20062;-69
2023/02/05 10:13:23;;;;;;;0.88;0.52;;;;;;;20.43;36.26;103756.41;5053393;28;20040;-69
2023/02/05 10:16:00;;;;;;;0.73;0.50;;;;;;;20.49;36.16;103758.63;5054589;28;21024;-68
2023/02/05 10:18:28;;;;;;;0.40;0.40;;;;;;;20.37;36.55;103767.44;5053389;28;20079;-68
2023/02/05 10:21:19;;;;;;;0.73;0.50;;;;;;;20.33;36.49;103772.09;5067865;28;20028;-70
2023/02/05 10:23:57;;;;;;;0.70;0.57;;;;;;;20.40;36.60;103775.13;5051796;28;20029;-69
2023/02/05 10:26:48;;;;;;;0.45;0.45;;;;;;;20.41;36.53;103769.75;5051720;28;20076;-68
2023/02/05 10:29:33;;;;;;;0.57;0.40;;;;;;;20.45;36.36;103783.59;5053523;28;20036;-69
2023/02/05 10:32:21;;;;;;;0.47;0.47;;;;;;;20.34;36.47;103784.38;5054627;28;20088;-69
2023/02/05 10:35:07;;;;;;;1.10;0.68;;;;;;;20.40;36.71;103785.72;5049809;28;20052;-69
2023/02/05 10:37:46;;;;;;;1.10;0.80;;;;;;;20.32;36.50;103781.00;5042039;28;21802;-68
2023/02/05 10:40:19;;;;;;;0.47;0.47;;;;;;;20.23;36.77;103784.31;5050822;28;20033;-69
2023/02/05 10:43:03;;;;;;;0.93;0.50;;;;;;;20.39;36.50;103789.31;5048609;28;20043;-68
2023/02/05 10:45:29;;;;;;;0.73;0.73;;;;;;;20.58;36.12;103786.19;5049596;28;20168;-69
2023/02/05 10:48:04;;;;;;;0.40;0.40;;;;;;;20.67;35.98;103801.44;5051229;28;20071;-68
2023/02/05 10:50:36;;;;;;;0.70;0.70;;;;;;;20.67;35.91;103809.38;5055555;28;20036;-68
2023/02/05 10:53:02;;;;;;;0.85;0.60;;;;;;;20.72;36.01;103817.81;5059173;28;20674;-69
2023/02/05 10:55:28;;;;;;;0.50;0.50;;;;;;;20.68;35.99;103813.72;5058286;28;20048;-69
2023/02/05 10:57:53;;;;;;;0.65;0.65;;;;;;;20.58;36.04;103824.13;5058368;28;20051;-69
2023/02/05 11:00:21;;;;;;;0.80;0.77;;;;;;;20.46;36.24;103825.84;5060457;28;20251;-69
2023/02/05 11:02:49;;;;;;;0.88;0.60;;;;;;;20.47;36.35;103846.09;5058057;28;20032;-69
2023/02/05 11:05:20;;;;;;;0.65;0.65;;;;;;;20.46;36.20;103838.22;5060561;28;20394;-69
2023/02/05 11:07:48;;;;;;;0.38;0.38;;;;;;;20.43;36.33;103843.75;5060554;28;20051;-69
2023/02/05 11:10:19;;;;;;;0.90;0.70;;;;;;;20.38;36.48;103840.56;5059782;28;20580;-69
2023/02/05 11:12:50;;;;;;;1.27;1.10;;;;;;;20.39;36.38;103855.50;5057256;28;20520;-68
2023/02/05 11:15:28;;;;;;;0.80;0.70;;;;;;;20.35;36.43;103846.09;5057385;28;20478;-69
2023/02/05 11:18:04;;;;;;;1.33;0.90;;;;;;;20.43;36.31;103843.75;5056170;28;20056;-69
2023/02/05 11:20:35;;;;;;;0.70;0.55;;;;;;;20.44;36.10;103851.59;5056454;28;20668;-69
2023/02/05 11:23:20;;;;;;;1.08;0.80;;;;;;;20.47;36.18;103834.66;5062461;28;20042;-69
2023/02/05 11:25:53;;;;;;;1.55;0.98;;;;;;;20.43;36.21;103847.25;5056752;28;20442;-69
2023/02/05 11:28:40;;;;;;;1.20;0.90;;;;;;;20.41;36.22;103835.09;5056035;28;20044;-69
2023/02/05 11:31:18;;;;;;;0.65;0.65;;;;;;;20.56;36.02;103846.38;5049054;28;20044;-69
2023/02/05 11:33:44;;;;;;;0.95;0.75;;;;;;;20.46;36.30;103841.72;5057376;28;20486;-69
2023/02/05 11:36:20;;;;;;;1.67;0.93;;;;;;;20.47;36.02;103834.66;5054930;28;20029;-69
2023/02/05 11:38:55;;;;;;;1.00;0.88;;;;;;;20.45;36.22;103839.19;5058726;28;20032;-69